Time;durP1;ratioP1;P1;durP2;ratioP2;P2;SDS_P1;SDS_P2;PMS_P1;PMS_P2;Temp;Humidity;BMP_temperature;BMP_pressure;BME280_temperature;BME280_humidity;BME280_pressure;Samples;Min_cycle;Max_cycle;Signal;HPM_P1;HPM_P2
2023/05/25 00:00:20;;;;;;;6.10;4.67;;;;;;;12.45;84.26;102415.59;6036418;29;22874;-75
2023/05/25 00:03:42;;;;;;;8.57;4.07;;;;;;;12.45;84.01;102410.19;6013206;29;20238;-76
2023/05/25 00:07:03;;;;;;;5.37;3.83;;;;;;;12.34;84.85;102410.09;6041467;29;20512;-76
2023/05/25 00:10:25;;;;;;;7.27;3.30;;;;;;;12.27;84.53;102411.50;6033241;29;20284;-76
2023/05/25 00:13:46;;;;;;;6.57;3.63;;;;;;;12.19;84.86;102412.06;6010668;29;21029;-76
2023/05/25 00:17:09;;;;;;;7.67;4.30;;;;;;;12.12;85.55;102412.59;6015108;29;20357;-77
2023/05/25 00:20:31;;;;;;;10.37;4.37;;;;;;;12.31;85.37;102423.81;6043080;29;20229;-76
2023/05/25 00:23:52;;;;;;;19.97;4.90;;;;;;;12.18;86.69;102429.25;6034430;29;20320;-76
2023/05/25 00:27:15;;;;;;;4.87;3.77;;;;;;;12.24;85.68;102422.53;5999792;29;20292;-76
2023/05/25 00:30:36;;;;;;;8.30;4.07;;;;;;;12.23;86.72;102429.78;6015190;29;20341;-76
2023/05/25 00:33:57;;;;;;;7.50;4.20;;;;;;;12.27;86.33;102420.47;6039712;29;20226;-77
2023/05/25 00:37:18;;;;;;;6.90;4.27;;;;;;;12.13;86.81;102419.72;6015166;29;20242;-76
2023/05/25 00:40:40;;;;;;;5.97;3.60;;;;;;;12.15;86.29;102421.34;6042537;29;20234;-77
2023/05/25 00:44:03;;;;;;;8.93;4.63;;;;;;;12.18;87.21;102420.28;6016293;29;20306;-76
2023/05/25 00:47:24;;;;;;;10.47;4.50;;;;;;;12.21;86.82;102420.91;6036470;29;20234;-76
2023/05/25 00:50:46;;;;;;;6.17;4.17;;;;;;;12.19;87.41;102416.59;6000296;29;20231;-77
2023/05/25 00:54:07;;;;;;;9.17;5.90;;;;;;;12.11;87.47;102419.84;6038248;29;20329;-76
2023/05/25 00:57:32;;;;;;;5.43;3.60;;;;;;;12.09;87.81;102418.22;6027409;29;20732;-75
2023/05/25 01:00:58;;;;;;;9.27;5.53;;;;;;;12.05;87.40;102417.56;6015998;29;20234;-76
2023/05/25 01:04:21;;;;;;;7.60;5.10;;;;;;;11.99;87.72;102413.44;6034674;29;20238;-76
2023/05/25 01:07:44;;;;;;;5.97;4.63;;;;;;;12.10;88.53;102422.66;6025585;29;20234;-76
2023/05/25 01:11:08;;;;;;;8.33;5.40;;;;;;;12.04;88.42;102410.44;6024700;29;20237;-75
2023/05/25 01:14:29;;;;;;;9.80;4.87;;;;;;;12.03;88.41;102414.13;6033929;29;20238;-75
2023/05/25 01:17:52;;;;;;;7.07;5.77;;;;;;;12.11;89.01;102413.56;6023511;29;20253;-77
2023/05/25 01:21:21;;;;;;;6.40;4.47;;;;;;;11.91;88.90;102415.81;6026568;29;20640;-77
2023/05/25 01:24:46;;;;;;;10.67;4.93;;;;;;;11.91;89.43;102417.69;6022686;29;20674;-76
2023/05/25 01:28:13;;;;;;;7.27;4.30;;;;;;;11.95;88.90;102424.59;6027014;29;20229;-76
2023/05/25 01:31:35;;;;;;;7.93;4.37;;;;;;;11.95;89.29;102416.50;6023616;29;20234;-76
2023/05/25 01:35:00;;;;;;;15.07;6.13;;;;;;;11.99;89.56;102424.25;6024627;29;20521;-77
2023/05/25 01:38:22;;;;;;;9.37;6.20;;;;;;;11.94;89.22;102430.97;6001389;29;20237;-78
2023/05/25 01:41:43;;;;;;;5.67;4.93;;;;;;;11.99;90.67;102426.97;6025790;29;20238;-76
2023/05/25 01:45:05;;;;;;;9.07;5.77;;;;;;;12.05;89.70;102425.69;6020870;29;20229;-76
2023/05/25 01:48:37;;;;;;;11.57;5.90;;;;;;;11.96;90.16;102426.31;6029042;29;20751;-77
2023/05/25 01:52:07;;;;;;;11.13;6.23;;;;;;;12.01;89.84;102426.88;6012492;29;20237;-76
2023/05/25 01:55:34;;;;;;;10.60;6.30;;;;;;;11.88;90.04;102423.28;6022973;29;20325;-76
2023/05/25 01:58:57;;;;;;;7.70;5.67;;;;;;;11.80;90.58;102417.56;6034190;29;20238;-76
2023/05/25 02:02:19;;;;;;;14.50;6.00;;;;;;;11.76;90.85;102411.50;6019961;29;20233;-76
2023/05/25 02:05:42;;;;;;;6.73;5.30;;;;;;;11.89;90.75;102416.94;6015812;29;20250;-76
2023/05/25 02:09:03;;;;;;;11.63;6.10;;;;;;;11.79;90.01;102413.97;6034518;29;20233;-77
2023/05/25 02:12:27;;;;;;;11.73;6.23;;;;;;;11.82;90.82;102415.63;6009503;29;20241;-75
2023/05/25 02:15:48;;;;;;;8.10;6.03;;;;;;;11.72;91.62;102412.66;6027065;29;20298;-76
2023/05/25 02:19:11;;;;;;;8.53;6.23;;;;;;;11.80;91.67;102413.03;6034294;29;20237;-76
2023/05/25 02:22:32;;;;;;;9.07;7.30;;;;;;;11.55;91.58;102410.25;6022467;29;20754;-75
2023/05/25 02:25:54;;;;;;;11.27;5.73;;;;;;;11.65;91.50;102421.28;6022687;29;20249;-75
2023/05/25 02:29:19;;;;;;;16.43;7.23;;;;;;;11.65;91.46;102426.69;6033388;29;20668;-76
2023/05/25 02:32:40;;;;;;;12.67;5.73;;;;;;;11.58;91.76;102426.22;6006898;29;20261;-77
2023/05/25 02:36:01;;;;;;;11.10;6.63;;;;;;;11.53;92.10;102420.28;6022602;29;20239;-77
2023/05/25 02:39:21;;;;;;;7.30;5.87;;;;;;;11.71;92.01;102427.16;6024065;29;20242;-77
2023/05/25 02:42:42;;;;;;;9.13;6.17;;;;;;;11.61;91.63;102422.47;6019213;29;20261;-76
2023/05/25 02:46:05;;;;;;;8.77;6.80;;;;;;;11.64;92.08;102425.81;6026439;29;21130;-77
2023/05/25 02:49:26;;;;;;;11.40;7.57;;;;;;;11.59;91.99;102419.00;6032791;29;20632;-76
2023/05/25 02:52:47;;;;;;;8.20;6.13;;;;;;;11.62;92.14;102424.22;6020286;29;20332;-76
2023/05/25 02:56:09;;;;;;;8.80;6.63;;;;;;;11.75;91.60;102420.56;6024272;29;21265;-77
2023/05/25 02:59:30;;;;;;;11.40;7.00;;;;;;;11.72;91.51;102433.44;6029069;29;20242;-76
2023/05/25 03:02:53;;;;;;;10.57;5.97;;;;;;;11.53;91.48;102428.41;5995415;29;20238;-76
2023/05/25 03:06:14;;;;;;;11.77;6.00;;;;;;;11.51;92.11;102434.88;6024925;29;20234;-77
2023/05/25 03:09:36;;;;;;;11.57;6.43;;;;;;;11.45;91.98;102440.69;6019367;29;20230;-76
2023/05/25 03:12:59;;;;;;;11.60;5.97;;;;;;;11.50;92.30;102438.50;6020899;29;20429;-77
2023/05/25 03:16:21;;;;;;;7.10;4.63;;;;;;;11.66;91.86;102445.50;6022395;29;20229;-76
2023/05/25 03:19:44;;;;;;;8.30;6.07;;;;;;;11.78;92.55;102446.53;6021312;29;20729;-77
2023/05/25 03:23:05;;;;;;;6.83;5.93;;;;;;;11.96;92.27;102448.81;6016608;29;20237;-77
2023/05/25 03:26:27;;;;;;;10.10;5.47;;;;;;;11.87;91.93;102452.16;6025354;29;20230;-76
2023/05/25 03:29:49;;;;;;;8.53;5.60;;;;;;;11.83;91.11;102456.03;6025688;29;20238;-76
2023/05/25 03:33:12;;;;;;;10.43;6.73;;;;;;;11.77;91.10;102469.09;6019815;29;20261;-77
2023/05/25 03:36:39;;;;;;;14.90;7.60;;;;;;;11.89;91.57;102468.28;6034743;29;20253;-77
2023/05/25 03:40:00;;;;;;;6.40;4.37;;;;;;;11.73;91.58;102467.56;6017627;29;20301;-76
2023/05/25 03:43:21;;;;;;;9.00;6.30;;;;;;;11.94;90.68;102466.97;6019551;29;20245;-77
2023/05/25 03:46:43;;;;;;;18.47;6.53;;;;;;;11.81;91.05;102459.81;6030428;29;20498;-77
2023/05/25 03:50:04;;;;;;;7.47;5.40;;;;;;;11.89;91.32;102461.00;6039971;29;20230;-76
2023/05/25 03:53:26;;;;;;;8.50;5.77;;;;;;;11.91;90.49;102467.16;6041551;29;20229;-76
2023/05/25 03:56:47;;;;;;;7.43;5.43;;;;;;;11.97;90.11;102471.31;6026292;29;20234;-78
2023/05/25 04:00:09;;;;;;;7.40;5.50;;;;;;;11.95;90.47;102482.19;6043100;29;20337;-76
2023/05/25 04:03:34;;;;;;;11.80;5.93;;;;;;;11.89;89.87;102481.78;6037943;29;20266;-76
2023/05/25 04:06:55;;;;;;;5.80;5.27;;;;;;;11.76;89.67;102497.97;6032545;29;20529;-76
2023/05/25 04:10:17;;;;;;;9.57;5.00;;;;;;;11.84;90.75;102494.72;6027551;29;20991;-76
2023/05/25 04:13:39;;;;;;;7.90;5.53;;;;;;;11.76;90.43;102495.28;6039185;29;20241;-76
2023/05/25 04:17:00;;;;;;;10.53;5.47;;;;;;;11.87;90.57;102508.88;6027152;29;21135;-76
2023/05/25 04:20:21;;;;;;;6.70;5.47;;;;;;;11.55;90.26;102509.31;6026677;29;20237;-76
2023/05/25 04:23:43;;;;;;;5.67;4.27;;;;;;;11.72;90.97;102507.22;6026096;29;20628;-76
2023/05/25 04:27:06;;;;;;;7.80;4.73;;;;;;;11.61;89.67;102498.97;6027137;29;20253;-76
2023/05/25 04:30:27;;;;;;;6.07;5.10;;;;;;;11.88;89.98;102504.38;6029306;29;20712;-76
2023/05/25 04:34:02;;;;;;;8.10;5.73;;;;;;;12.09;88.90;102505.59;6037841;29;20234;-75
2023/05/25 04:37:26;;;;;;;5.57;5.03;;;;;;;12.15;89.10;102507.88;6021053;29;20242;-76
2023/05/25 04:40:47;;;;;;;7.53;4.97;;;;;;;12.14;89.01;102503.41;6021069;29;20262;-77
2023/05/25 04:44:10;;;;;;;7.70;4.30;;;;;;;12.33;88.15;102512.00;6037488;29;20254;-74
2023/05/25 04:47:34;;;;;;;22.87;7.27;;;;;;;12.21;86.95;102506.56;6024217;29;20241;-76
2023/05/25 04:50:56;;;;;;;13.83;6.10;;;;;;;12.23;87.34;102515.44;6023310;29;20238;-76
2023/05/25 04:54:18;;;;;;;11.37;4.77;;;;;;;12.37;86.22;102518.06;6029054;29;20233;-75
2023/05/25 04:57:39;;;;;;;7.40;4.50;;;;;;;12.50;85.93;102516.22;6024066;29;20253;-75
2023/05/25 05:01:01;;;;;;;6.57;4.60;;;;;;;12.46;86.10;102515.56;6014259;29;20238;-77
2023/05/25 05:04:23;;;;;;;10.90;5.53;;;;;;;12.42;85.35;102514.06;6035918;29;20523;-77
2023/05/25 05:07:44;;;;;;;5.60;4.57;;;;;;;12.55;85.48;102520.34;6030861;29;20238;-76
2023/05/25 05:11:05;;;;;;;5.30;4.60;;;;;;;12.54;85.00;102517.72;6026682;29;20245;-77
2023/05/25 05:14:26;;;;;;;9.07;5.13;;;;;;;12.42;84.72;102519.47;6043376;29;20636;-76
2023/05/25 05:17:48;;;;;;;9.33;4.67;;;;;;;12.58;85.15;102519.22;6029780;29;20233;-78
2023/05/25 05:21:10;;;;;;;6.67;4.97;;;;;;;12.59;84.40;102524.56;6029028;29;20313;-76
2023/05/25 05:24:31;;;;;;;4.67;4.23;;;;;;;12.54;84.49;102528.53;6038895;29;20241;-76
2023/05/25 05:27:53;;;;;;;5.13;4.37;;;;;;;12.91;84.43;102538.50;6015821;29;21942;-77
2023/05/25 05:31:21;;;;;;;7.33;4.03;;;;;;;12.78;83.82;102529.53;6018843;29;20676;-77
2023/05/25 05:34:44;;;;;;;7.57;4.57;;;;;;;12.79;83.47;102532.13;6019710;29;20245;-76
2023/05/25 05:38:18;;;;;;;5.93;4.60;;;;;;;12.89;83.39;102531.47;6014990;29;20237;-77
2023/05/25 05:41:42;;;;;;;6.87;5.23;;;;;;;12.95;83.59;102540.00;6008621;29;20628;-71
2023/05/25 05:45:03;;;;;;;6.70;4.13;;;;;;;12.96;82.76;102541.72;6011584;29;20242;-74
2023/05/25 05:48:25;;;;;;;9.77;4.57;;;;;;;13.01;82.40;102541.41;6020058;29;20238;-74
2023/05/25 05:51:47;;;;;;;4.93;3.60;;;;;;;13.15;81.84;102544.00;6019540;29;20256;-74
2023/05/25 05:55:09;;;;;;;7.43;3.73;;;;;;;13.11;81.15;102550.63;6005059;29;20316;-74
2023/05/25 05:58:32;;;;;;;7.53;3.70;;;;;;;13.31;81.07;102550.00;6016137;29;20242;-75
2023/05/25 06:01:55;;;;;;;6.23;3.57;;;;;;;13.31;80.71;102536.47;5996329;29;20861;-72
2023/05/25 06:05:16;;;;;;;10.37;4.67;;;;;;;13.45;80.18;102549.88;6009354;29;20312;-74
2023/05/25 06:08:40;;;;;;;7.47;4.37;;;;;;;13.38;79.97;102543.19;6001104;29;20238;-72
2023/05/25 06:12:02;;;;;;;20.83;5.73;;;;;;;13.52;78.91;102553.84;5999104;29;20299;-71
2023/05/25 06:15:24;;;;;;;6.53;3.60;;;;;;;13.33;78.75;102557.06;6010384;29;20499;-73
2023/05/25 06:18:48;;;;;;;8.90;4.43;;;;;;;13.50;78.34;102545.84;6020540;29;20238;-74
2023/05/25 06:22:09;;;;;;;12.37;5.77;;;;;;;13.74;77.57;102551.28;6032269;29;20321;-72
2023/05/25 06:25:31;;;;;;;10.73;4.47;;;;;;;13.99;76.72;102551.16;6017525;29;20312;-72
2023/05/25 06:28:53;;;;;;;5.87;4.43;;;;;;;13.90;76.21;102548.25;6033030;29;20241;-73
2023/05/25 06:32:14;;;;;;;10.73;3.70;;;;;;;13.88;75.92;102559.22;6021855;29;20254;-71
2023/05/25 06:35:35;;;;;;;6.57;3.43;;;;;;;14.03;75.11;102555.34;6010897;29;20254;-72
2023/05/25 06:38:56;;;;;;;12.07;4.40;;;;;;;14.09;74.40;102559.44;6030835;29;20237;-71
2023/05/25 06:42:19;;;;;;;6.37;4.10;;;;;;;14.09;73.87;102554.88;6015884;29;20258;-73
2023/05/25 06:45:47;;;;;;;14.37;5.13;;;;;;;14.01;73.04;102559.16;6015396;29;20241;-72
2023/05/25 06:49:09;;;;;;;14.97;4.47;;;;;;;13.97;72.96;102563.97;6037450;29;20555;-74
2023/05/25 06:52:30;;;;;;;11.20;5.83;;;;;;;14.30;71.83;102574.97;6031998;29;20237;-74
2023/05/25 06:55:51;;;;;;;12.23;4.03;;;;;;;14.52;71.20;102562.44;6028039;29;21885;-74
2023/05/25 06:59:13;;;;;;;8.73;3.80;;;;;;;14.78;70.70;102564.81;6040882;29;20237;-75
2023/05/25 07:02:34;;;;;;;8.17;3.63;;;;;;;14.83;70.06;102564.47;6023378;29;20241;-75
2023/05/25 07:05:55;;;;;;;6.97;3.60;;;;;;;14.87;69.71;102565.94;6039963;29;20261;-76
2023/05/25 07:09:16;;;;;;;8.27;4.23;;;;;;;14.78;70.04;102572.09;6043435;29;20250;-75
2023/05/25 07:12:37;;;;;;;6.67;4.53;;;;;;;14.39;70.42;102576.94;6036239;29;20245;-72
2023/05/25 07:15:59;;;;;;;9.77;3.93;;;;;;;14.71;70.26;102571.72;6026711;29;20336;-73
2023/05/25 07:19:20;;;;;;;7.17;4.93;;;;;;;14.64;69.38;102575.03;6047753;29;20268;-74
2023/05/25 07:22:42;;;;;;;7.70;4.37;;;;;;;14.70;68.81;102578.16;6036221;29;20608;-71
2023/05/25 07:26:03;;;;;;;9.03;4.37;;;;;;;14.97;67.76;102572.38;6040007;29;20560;-71
2023/05/25 07:29:23;;;;;;;10.67;4.97;;;;;;;15.18;67.37;102576.06;6036858;29;20249;-72
2023/05/25 07:32:46;;;;;;;16.37;5.40;;;;;;;14.99;67.05;102579.41;6018634;29;20245;-77
2023/05/25 07:36:08;;;;;;;6.23;3.73;;;;;;;15.06;67.19;102572.47;6029357;29;20238;-73
2023/05/25 07:39:29;;;;;;;8.93;4.40;;;;;;;15.30;66.09;102569.63;6044546;29;20230;-73
2023/05/25 07:42:50;;;;;;;9.90;4.63;;;;;;;15.26;65.83;102576.31;6037587;29;20237;-73
2023/05/25 07:46:11;;;;;;;6.13;3.10;;;;;;;15.45;65.08;102575.69;6033408;29;20332;-73
2023/05/25 07:49:33;;;;;;;7.33;4.97;;;;;;;15.64;64.57;102575.91;6043909;29;20723;-73
2023/05/25 07:52:57;;;;;;;8.90;4.53;;;;;;;15.65;64.10;102585.78;6017001;29;20241;-71
2023/05/25 07:56:18;;;;;;;9.50;4.73;;;;;;;15.44;64.45;102593.84;6020825;29;20226;-75
2023/05/25 07:59:41;;;;;;;11.27;4.80;;;;;;;15.92;64.19;102594.38;6048893;29;20253;-71
2023/05/25 08:03:02;;;;;;;6.60;4.23;;;;;;;16.32;63.69;102590.00;6037164;29;20324;-78
2023/05/25 08:06:24;;;;;;;11.37;5.53;;;;;;;15.84;63.65;102596.88;6033287;29;20254;-70
2023/05/25 08:09:45;;;;;;;12.17;4.83;;;;;;;15.71;62.87;102590.72;6055528;29;20309;-77
2023/05/25 08:13:06;;;;;;;10.27;4.47;;;;;;;15.95;62.67;102597.72;6038198;29;20233;-75
2023/05/25 08:16:27;;;;;;;7.57;3.73;;;;;;;16.20;62.51;102598.34;6031723;29;20233;-73
2023/05/25 08:19:48;;;;;;;10.13;4.97;;;;;;;15.85;61.43;102602.16;6031065;29;20234;-77
2023/05/25 08:23:10;;;;;;;10.07;3.97;;;;;;;16.12;60.52;102599.00;6033716;29;20234;-77
2023/05/25 08:26:31;;;;;;;9.00;3.97;;;;;;;16.53;60.80;102599.06;6044049;29;20238;-78
2023/05/25 08:29:51;;;;;;;12.60;4.17;;;;;;;16.77;60.40;102605.09;6041857;29;20230;-78
2023/05/25 08:33:12;;;;;;;6.10;3.33;;;;;;;16.75;59.10;102601.66;6006839;29;20348;-80
2023/05/25 08:36:34;;;;;;;14.37;4.83;;;;;;;17.15;58.67;102598.13;6025394;29;20255;-80
2023/05/25 08:39:59;;;;;;;22.47;5.47;;;;;;;17.05;58.52;102616.31;6042786;29;20322;-80
2023/05/25 08:43:20;;;;;;;6.37;3.87;;;;;;;16.59;57.33;102603.13;6044183;29;20729;-81
2023/05/25 08:46:41;;;;;;;7.23;4.57;;;;;;;16.64;56.73;102601.75;6037280;29;20242;-81
2023/05/25 08:50:03;;;;;;;9.00;4.10;;;;;;;16.66;57.36;102615.22;6052302;29;20233;-77
2023/05/25 08:53:26;;;;;;;12.40;5.00;;;;;;;16.97;57.72;102595.19;6041470;29;20313;-79
2023/05/25 08:56:53;;;;;;;13.60;4.77;;;;;;;17.07;56.13;102608.84;6039670;29;20326;-81
2023/05/25 09:00:15;;;;;;;8.57;3.90;;;;;;;17.21;55.13;102605.78;6039453;29;20253;-81
2023/05/25 09:03:37;;;;;;;6.87;4.53;;;;;;;17.45;56.25;102612.63;6052736;29;20237;-82
2023/05/25 09:06:58;;;;;;;7.27;4.20;;;;;;;17.30;56.52;102622.19;6038133;29;20241;-80
2023/05/25 09:10:20;;;;;;;8.50;3.73;;;;;;;16.45;57.88;102630.66;6029450;29;20260;-79
2023/05/25 09:13:43;;;;;;;12.63;5.07;;;;;;;16.89;57.63;102626.84;6052212;29;20305;-80
2023/05/25 09:17:04;;;;;;;11.77;4.97;;;;;;;16.95;57.35;102631.75;6029021;29;20629;-81
2023/05/25 09:20:30;;;;;;;12.33;4.87;;;;;;;17.14;56.47;102637.31;6040103;29;20324;-81
2023/05/25 09:23:51;;;;;;;10.67;4.03;;;;;;;17.58;55.61;102624.16;6054511;29;20570;-80
2023/05/25 09:27:16;;;;;;;7.57;4.00;;;;;;;18.29;54.14;102631.19;6026356;29;20633;-82
2023/05/25 09:30:38;;;;;;;13.73;4.78;;;;;;;17.83;54.08;102631.00;6039310;29;20225;-82
2023/05/25 09:33:59;;;;;;;8.57;4.35;;;;;;;17.16;56.27;102636.19;6025511;29;20320;-80
2023/05/25 09:37:21;;;;;;;11.52;4.32;;;;;;;17.13;56.25;102627.38;6038107;29;20242;-81
2023/05/25 09:40:45;;;;;;;9.40;3.95;;;;;;;18.00;55.67;102629.47;6034477;29;20242;-80
2023/05/25 09:44:06;;;;;;;9.60;5.07;;;;;;;18.23;55.27;102631.75;6035101;29;20233;-78
2023/05/25 09:47:29;;;;;;;11.43;4.03;;;;;;;18.08;54.27;102637.78;6045645;29;20238;-82
2023/05/25 09:50:51;;;;;;;15.15;5.40;;;;;;;17.50;55.48;102640.34;6031936;29;20238;-81
2023/05/25 09:54:12;;;;;;;10.70;3.88;;;;;;;17.61;55.22;102641.28;6043508;29;20233;-80
2023/05/25 09:57:36;;;;;;;13.07;4.10;;;;;;;17.89;56.27;102633.16;6022115;29;22221;-81
2023/05/25 10:00:57;;;;;;;6.77;4.37;;;;;;;17.63;54.98;102636.56;6010562;29;20241;-76
2023/05/25 10:04:19;;;;;;;9.53;3.50;;;;;;;18.13;54.13;102636.34;6025596;29;20810;-72
2023/05/25 10:07:41;;;;;;;6.90;4.07;;;;;;;17.87;54.30;102629.72;6028831;29;20265;-70
2023/05/25 10:11:04;;;;;;;7.20;4.43;;;;;;;18.03;54.60;102629.16;6028307;29;20233;-74
2023/05/25 10:14:27;;;;;;;9.77;4.67;;;;;;;18.35;54.07;102644.28;6041983;29;20931;-72
2023/05/25 10:17:53;;;;;;;15.57;5.27;;;;;;;18.15;53.60;102637.06;6035551;29;20237;-70
2023/05/25 10:21:17;;;;;;;8.13;4.13;;;;;;;18.28;52.50;102647.72;6027927;29;20645;-72
2023/05/25 10:24:45;;;;;;;11.30;4.80;;;;;;;18.70;52.98;102641.00;6040577;29;20333;-71
2023/05/25 10:28:11;;;;;;;9.75;5.40;;;;;;;18.95;52.29;102636.78;6019216;29;20627;-73
2023/05/25 10:31:36;;;;;;;10.40;5.63;;;;;;;19.31;52.67;102641.41;6027021;29;20242;-73
2023/05/25 10:34:57;;;;;;;9.48;3.83;;;;;;;18.96;51.19;102646.72;6024791;29;20222;-73
2023/05/25 10:38:20;;;;;;;16.80;5.57;;;;;;;19.37;51.29;102656.38;6046448;29;20281;-71
2023/05/25 10:41:42;;;;;;;11.85;6.32;;;;;;;19.53;50.81;102640.19;6026672;29;20242;-71
2023/05/25 10:45:05;;;;;;;9.68;4.53;;;;;;;19.18;49.77;102649.09;6047333;29;20238;-71
2023/05/25 10:48:36;;;;;;;10.20;5.00;;;;;;;19.59;49.42;102645.91;6035533;29;20242;-71
2023/05/25 10:51:58;;;;;;;8.82;3.95;;;;;;;19.89;48.76;102651.09;6028082;29;20241;-73
2023/05/25 10:55:20;;;;;;;11.73;5.20;;;;;;;20.35;49.14;102647.34;6033471;29;20266;-73
2023/05/25 10:58:43;;;;;;;9.73;3.83;;;;;;;20.63;47.83;102639.91;6032952;29;20226;-73
2023/05/25 11:02:06;;;;;;;11.80;4.97;;;;;;;20.48;47.20;102641.47;5998393;29;20261;-76
2023/05/25 11:05:35;;;;;;;10.52;5.18;;;;;;;20.88;47.01;102641.78;6044851;29;20272;-71
2023/05/25 11:08:57;;;;;;;10.13;4.50;;;;;;;20.64;46.93;102645.22;6034720;29;20234;-69
2023/05/25 11:12:21;;;;;;;10.75;4.50;;;;;;;20.65;47.96;102627.72;6035324;29;20241;-73
2023/05/25 11:15:42;;;;;;;13.57;5.05;;;;;;;21.08;47.36;102624.16;6020586;29;20230;-71
2023/05/25 11:19:03;;;;;;;9.15;5.03;;;;;;;20.14;46.65;102627.56;6044278;29;22163;-72
2023/05/25 11:22:31;;;;;;;12.25;4.57;;;;;;;20.29;47.55;102628.78;6028538;29;20333;-75
2023/05/25 11:25:52;;;;;;;10.38;5.03;;;;;;;20.75;48.27;102629.53;6022072;29;20233;-77
2023/05/25 11:29:15;;;;;;;12.10;5.75;;;;;;;20.76;48.31;102629.34;6039184;29;20854;-75
2023/05/25 11:32:39;;;;;;;12.20;4.80;;;;;;;21.00;47.21;102628.69;6026464;29;20230;-73
2023/05/25 11:36:00;;;;;;;12.70;5.65;;;;;;;21.38;46.67;102617.28;6028746;29;20242;-72
2023/05/25 11:39:22;;;;;;;9.35;5.13;;;;;;;21.87;45.93;102612.88;6032086;29;20260;-73
2023/05/25 11:42:47;;;;;;;12.52;5.28;;;;;;;22.14;44.69;102610.72;6018557;29;20234;-76
2023/05/25 11:46:11;;;;;;;14.70;5.70;;;;;;;22.01;45.99;102620.44;6024322;29;20234;-76
2023/05/25 11:49:32;;;;;;;10.95;5.22;;;;;;;21.55;46.55;102618.22;6045877;29;20241;-76
2023/05/25 11:52:52;;;;;;;9.45;5.05;;;;;;;20.98;47.17;102623.38;6035644;29;20238;-73
2023/05/25 11:56:15;;;;;;;11.57;5.88;;;;;;;21.01;46.99;102620.28;6037866;29;20234;-73
2023/05/25 11:59:38;;;;;;;15.63;6.28;;;;;;;20.52;47.56;102612.72;6043949;29;20230;-74
2023/05/25 12:03:01;;;;;;;8.82;5.85;;;;;;;21.16;47.99;102609.59;6031380;29;20265;-72
2023/05/25 12:06:26;;;;;;;10.60;4.40;;;;;;;21.48;47.56;102613.41;6034759;29;20245;-71
2023/05/25 12:09:47;;;;;;;11.60;4.88;;;;;;;20.47;48.05;102610.47;6042957;29;20241;-72
2023/05/25 12:13:10;;;;;;;8.57;4.95;;;;;;;21.07;47.42;102616.94;6038536;29;20249;-70
2023/05/25 12:16:33;;;;;;;14.50;4.68;;;;;;;22.05;45.94;102608.13;6030522;29;20230;-73
2023/05/25 12:19:55;;;;;;;21.30;6.45;;;;;;;21.98;45.80;102598.81;6041948;29;20289;-72
2023/05/25 12:23:16;;;;;;;14.18;5.10;;;;;;;22.57;45.80;102601.28;6042869;29;20234;-72
2023/05/25 12:26:47;;;;;;;17.10;4.78;;;;;;;22.66;44.87;102600.28;6003912;29;20229;-71
2023/05/25 12:30:09;;;;;;;14.07;4.90;;;;;;;21.87;46.46;102605.50;6042191;29;20248;-72
2023/05/25 12:33:30;;;;;;;13.07;5.78;;;;;;;22.13;46.12;102603.47;6034519;29;20242;-70
2023/05/25 12:36:54;;;;;;;10.68;4.57;;;;;;;22.41;44.66;102584.78;6028832;29;20738;-73
2023/05/25 12:40:19;;;;;;;9.18;5.00;;;;;;;22.49;44.21;102604.03;6046115;29;20313;-73
2023/05/25 12:43:42;;;;;;;8.10;4.70;;;;;;;23.34;43.63;102589.69;6042302;29;20257;-73
2023/05/25 12:47:10;;;;;;;14.30;5.28;;;;;;;22.64;44.28;102588.59;6020714;29;20242;-74
2023/05/25 12:50:31;;;;;;;14.57;5.30;;;;;;;22.91;44.40;102595.59;6029433;29;20250;-74
2023/05/25 12:53:53;;;;;;;10.63;5.18;;;;;;;22.14;44.76;102599.72;6040722;29;21379;-71
2023/05/25 12:57:16;;;;;;;13.15;4.95;;;;;;;22.92;44.21;102595.44;6024085;29;20242;-70
2023/05/25 13:00:38;;;;;;;15.63;5.68;;;;;;;23.81;43.82;102590.47;6015161;29;20246;-72
2023/05/25 13:03:59;;;;;;;16.08;4.60;;;;;;;26.43;38.28;102586.25;6043156;29;20233;-71
2023/05/25 13:07:21;;;;;;;15.65;6.03;;;;;;;28.04;35.83;102582.19;6034728;29;20226;-71
2023/05/25 13:10:47;;;;;;;10.88;5.63;;;;;;;29.37;34.43;102578.19;6038896;29;20237;-72
2023/05/25 13:14:08;;;;;;;13.57;4.85;;;;;;;27.77;35.46;102574.81;6049997;29;20230;-71
2023/05/25 13:17:28;;;;;;;7.90;4.30;;;;;;;28.39;35.25;102567.13;6037422;29;20249;-71
2023/05/25 13:20:49;;;;;;;8.57;4.80;;;;;;;28.00;35.41;102559.56;6038585;29;20237;-70
2023/05/25 13:24:10;;;;;;;10.75;5.55;;;;;;;28.11;35.02;102564.50;6039128;29;20238;-74
2023/05/25 13:27:32;;;;;;;17.13;5.65;;;;;;;28.07;34.89;102570.69;6027725;29;20246;-73
2023/05/25 13:30:53;;;;;;;9.18;4.60;;;;;;;28.78;34.56;102567.16;6034758;29;20277;-75
2023/05/25 13:34:13;;;;;;;8.80;4.32;;;;;;;24.88;38.24;102539.84;6045355;29;20249;-74
2023/05/25 13:37:34;;;;;;;13.70;4.72;;;;;;;26.59;38.39;102563.00;6037784;29;20241;-74
2023/05/25 13:40:55;;;;;;;11.40;5.85;;;;;;;27.62;35.08;102558.34;6041725;29;20238;-68
2023/05/25 13:44:17;;;;;;;6.47;3.97;;;;;;;28.71;35.17;102554.31;6056461;29;20241;-72
2023/05/25 13:47:38;;;;;;;9.60;4.55;;;;;;;28.36;35.06;102540.66;6031002;29;20230;-74
2023/05/25 13:50:59;;;;;;;9.98;4.78;;;;;;;27.55;36.06;102544.50;6033321;29;20234;-73
2023/05/25 13:54:20;;;;;;;8.73;5.35;;;;;;;27.07;36.46;102536.31;6046773;29;20233;-70
2023/05/25 13:57:41;;;;;;;12.27;5.20;;;;;;;26.95;37.36;102535.19;6039955;29;20237;-69
2023/05/25 14:01:03;;;;;;;9.80;4.57;;;;;;;26.77;36.63;102544.84;6037026;29;20245;-70
2023/05/25 14:04:24;;;;;;;6.70;3.92;;;;;;;26.78;37.39;102546.59;6027850;29;20360;-75
2023/05/25 14:07:45;;;;;;;13.02;4.57;;;;;;;25.29;39.01;102550.22;6022632;29;20695;-77
2023/05/25 14:11:06;;;;;;;8.43;4.50;;;;;;;24.50;40.57;102550.03;6025836;29;20325;-73
2023/05/25 14:14:27;;;;;;;7.10;4.10;;;;;;;22.50;41.46;102545.28;6044637;29;20241;-74
2023/05/25 14:17:49;;;;;;;13.98;5.90;;;;;;;23.87;42.48;102546.69;6026578;29;20628;-72
2023/05/25 14:21:11;;;;;;;10.73;5.50;;;;;;;23.72;42.67;102541.97;6026637;29;20234;-72
2023/05/25 14:24:32;;;;;;;14.95;5.45;;;;;;;24.07;41.70;102542.47;6046731;29;20246;-73
2023/05/25 14:27:54;;;;;;;11.07;4.72;;;;;;;22.34;43.52;102542.53;6031493;29;20254;-73
2023/05/25 14:31:15;;;;;;;11.23;5.20;;;;;;;23.35;43.86;102543.72;6032605;29;20512;-69
2023/05/25 14:34:37;;;;;;;12.25;6.18;;;;;;;23.45;43.89;102547.09;6038327;29;20896;-73
2023/05/25 14:37:58;;;;;;;7.97;4.55;;;;;;;24.13;43.16;102539.84;6032552;29;20242;-74
2023/05/25 14:41:21;;;;;;;12.77;5.38;;;;;;;25.21;41.77;102539.28;6019933;29;20222;-73
2023/05/25 14:44:42;;;;;;;31.25;4.78;;;;;;;25.00;41.05;102543.84;6042006;29;20230;-77
2023/05/25 14:48:03;;;;;;;13.43;5.45;;;;;;;24.34;41.96;102545.53;6031341;29;20246;-73
2023/05/25 14:51:26;;;;;;;7.88;4.32;;;;;;;24.73;41.43;102539.81;6026072;29;20364;-73
2023/05/25 14:54:47;;;;;;;11.75;5.57;;;;;;;24.48;41.29;102538.31;6044360;29;20667;-73
2023/05/25 14:58:07;;;;;;;14.63;5.78;;;;;;;24.08;42.59;102535.91;6030420;29;20257;-72
2023/05/25 15:01:28;;;;;;;16.75;5.45;;;;;;;24.80;42.79;102528.91;6023803;29;20241;-71
2023/05/25 15:04:49;;;;;;;11.18;5.40;;;;;;;24.38;43.37;102533.09;6023575;29;20748;-71
2023/05/25 15:08:12;;;;;;;14.80;5.47;;;;;;;24.56;43.59;102541.88;6022765;29;20624;-72
2023/05/25 15:11:33;;;;;;;12.13;4.93;;;;;;;23.87;45.04;102543.94;6029439;29;20231;-72
2023/05/25 15:14:54;;;;;;;7.97;4.57;;;;;;;23.77;45.39;102544.19;6032865;29;20238;-72
2023/05/25 15:18:18;;;;;;;11.10;5.00;;;;;;;22.57;46.74;102537.19;6037626;29;20242;-73
2023/05/25 15:21:39;;;;;;;11.38;6.65;;;;;;;22.71;47.15;102542.00;6026759;29;20241;-73
2023/05/25 15:25:01;;;;;;;12.50;5.60;;;;;;;23.18;46.36;102542.91;6049527;29;20245;-74
2023/05/25 15:28:22;;;;;;;10.43;5.90;;;;;;;22.12;48.20;102544.06;6043793;29;20241;-76
2023/05/25 15:31:43;;;;;;;14.23;5.75;;;;;;;22.44;48.75;102545.97;6030282;29;20241;-75
2023/05/25 15:35:05;;;;;;;12.57;5.82;;;;;;;22.75;48.49;102537.88;6033967;29;20238;-77